sensor_id;sensor_type;location;lat;lon;timestamp;temperature;humidity
35692;DHT22;26978;44.830;-0.674;2023-05-07T00:01:08;15.50;99.90
35692;DHT22;26978;44.830;-0.674;2023-05-07T00:03:34;15.50;99.90
35692;DHT22;26978;44.830;-0.674;2023-05-07T00:06:00;15.50;99.90
35692;DHT22;26978;44.830;-0.674;2023-05-07T00:08:26;15.50;99.90
35692;DHT22;26978;44.830;-0.674;2023-05-07T00:10:51;15.50;99.90
35692;DHT22;26978;44.830;-0.674;2023-05-07T00:13:17;15.50;99.90
35692;DHT22;26978;44.830;-0.674;2023-05-07T00:15:42;15.50;99.90
35692;DHT22;26978;44.830;-0.674;2023-05-07T00:18:08;15.50;99.90
35692;DHT22;26978;44.830;-0.674;2023-05-07T00:20:34;15.50;99.90
35692;DHT22;26978;44.830;-0.674;2023-05-07T00:22:59;15.50;99.90
35692;DHT22;26978;44.830;-0.674;2023-05-07T00:25:25;15.50;99.90
35692;DHT22;26978;44.830;-0.674;2023-05-07T00:27:50;15.50;99.90
35692;DHT22;26978;44.830;-0.674;2023-05-07T00:30:16;15.50;99.90
35692;DHT22;26978;44.830;-0.674;2023-05-07T00:32:42;15.40;99.90
35692;DHT22;26978;44.830;-0.674;2023-05-07T00:35:08;15.40;99.90
35692;DHT22;26978;44.830;-0.674;2023-05-07T00:37:33;15.40;99.90
35692;DHT22;26978;44.830;-0.674;2023-05-07T00:39:59;15.40;99.90
35692;DHT22;26978;44.830;-0.674;2023-05-07T00:42:25;15.40;99.90
35692;DHT22;26978;44.830;-0.674;2023-05-07T00:44:51;15.40;99.90
35692;DHT22;26978;44.830;-0.674;2023-05-07T00:47:16;15.40;99.90
35692;DHT22;26978;44.830;-0.674;2023-05-07T00:49:44;15.40;99.90
35692;DHT22;26978;44.830;-0.674;2023-05-07T00:52:16;15.40;99.90
35692;DHT22;26978;44.830;-0.674;2023-05-07T00:54:42;15.40;99.90
35692;DHT22;26978;44.830;-0.674;2023-05-07T00:57:09;15.40;99.90
35692;DHT22;26978;44.830;-0.674;2023-05-07T00:59:36;15.40;99.90
35692;DHT22;26978;44.830;-0.674;2023-05-07T01:02:02;15.50;99.90
35692;DHT22;26978;44.830;-0.674;2023-05-07T01:04:28;15.50;99.90
35692;DHT22;26978;44.830;-0.674;2023-05-07T01:06:55;15.60;99.90
35692;DHT22;26978;44.830;-0.674;2023-05-07T01:09:23;15.50;99.90
35692;DHT22;26978;44.830;-0.674;2023-05-07T01:11:50;15.60;99.90
35692;DHT22;26978;44.830;-0.674;2023-05-07T01:14:16;15.60;99.90
35692;DHT22;26978;44.830;-0.674;2023-05-07T01:16:42;15.60;99.90
35692;DHT22;26978;44.830;-0.674;2023-05-07T01:19:11;15.60;99.90
35692;DHT22;26978;44.830;-0.674;2023-05-07T01:21:44;15.60;99.90
35692;DHT22;26978;44.830;-0.674;2023-05-07T01:24:11;15.70;99.90
35692;DHT22;26978;44.830;-0.674;2023-05-07T01:26:37;15.70;99.90
35692;DHT22;26978;44.830;-0.674;2023-05-07T01:29:03;15.70;99.90
35692;DHT22;26978;44.830;-0.674;2023-05-07T01:31:29;15.70;99.90
35692;DHT22;26978;44.830;-0.674;2023-05-07T01:33:55;15.70;99.90
35692;DHT22;26978;44.830;-0.674;2023-05-07T01:36:21;15.80;99.90
35692;DHT22;26978;44.830;-0.674;2023-05-07T01:38:49;15.80;99.90
35692;DHT22;26978;44.830;-0.674;2023-05-07T01:41:15;15.80;99.90
35692;DHT22;26978;44.830;-0.674;2023-05-07T01:43:41;15.80;99.90
35692;DHT22;26978;44.830;-0.674;2023-05-07T01:46:08;15.80;99.90
35692;DHT22;26978;44.830;-0.674;2023-05-07T01:48:35;15.80;99.90
35692;DHT22;26978;44.830;-0.674;2023-05-07T01:51:01;15.70;99.90
35692;DHT22;26978;44.830;-0.674;2023-05-07T01:53:28;15.80;99.90
35692;DHT22;26978;44.830;-0.674;2023-05-07T01:55:53;15.80;99.90
35692;DHT22;26978;44.830;-0.674;2023-05-07T01:58:19;15.80;99.90
35692;DHT22;26978;44.830;-0.674;2023-05-07T02:00:45;15.80;99.90
35692;DHT22;26978;44.830;-0.674;2023-05-07T02:03:11;15.80;99.90
35692;DHT22;26978;44.830;-0.674;2023-05-07T02:05:36;15.80;99.90
35692;DHT22;26978;44.830;-0.674;2023-05-07T02:08:02;15.80;99.90
35692;DHT22;26978;44.830;-0.674;2023-05-07T02:10:27;15.80;99.90
35692;DHT22;26978;44.830;-0.674;2023-05-07T02:12:53;15.80;99.90
35692;DHT22;26978;44.830;-0.674;2023-05-07T02:15:19;15.80;99.90
35692;DHT22;26978;44.830;-0.674;2023-05-07T02:20:28;15.80;99.90
35692;DHT22;26978;44.830;-0.674;2023-05-07T02:22:54;15.80;99.90
35692;DHT22;26978;44.830;-0.674;2023-05-07T02:25:20;15.80;99.90
35692;DHT22;26978;44.830;-0.674;2023-05-07T02:27:45;15.80;99.90
35692;DHT22;26978;44.830;-0.674;2023-05-07T02:30:11;15.80;99.90
35692;DHT22;26978;44.830;-0.674;2023-05-07T02:32:37;15.80;99.90
35692;DHT22;26978;44.830;-0.674;2023-05-07T02:35:02;15.80;99.90
35692;DHT22;26978;44.830;-0.674;2023-05-07T02:37:28;15.80;99.90
35692;DHT22;26978;44.830;-0.674;2023-05-07T02:39:54;15.80;99.90
35692;DHT22;26978;44.830;-0.674;2023-05-07T02:42:19;15.70;99.90
35692;DHT22;26978;44.830;-0.674;2023-05-07T02:44:45;15.70;99.90
35692;DHT22;26978;44.830;-0.674;2023-05-07T02:47:11;15.80;99.90
35692;DHT22;26978;44.830;-0.674;2023-05-07T02:49:38;15.70;99.90
35692;DHT22;26978;44.830;-0.674;2023-05-07T02:52:04;15.70;99.90
35692;DHT22;26978;44.830;-0.674;2023-05-07T02:54:30;15.70;99.90
35692;DHT22;26978;44.830;-0.674;2023-05-07T02:56:55;15.70;99.90
35692;DHT22;26978;44.830;-0.674;2023-05-07T02:59:21;15.70;99.90
35692;DHT22;26978;44.830;-0.674;2023-05-07T03:01:47;15.70;99.90
35692;DHT22;26978;44.830;-0.674;2023-05-07T03:04:13;15.70;99.90
35692;DHT22;26978;44.830;-0.674;2023-05-07T03:06:39;15.70;99.90
35692;DHT22;26978;44.830;-0.674;2023-05-07T03:09:05;15.70;99.90
35692;DHT22;26978;44.830;-0.674;2023-05-07T03:11:30;15.70;99.90
35692;DHT22;26978;44.830;-0.674;2023-05-07T03:13:56;15.60;99.90
35692;DHT22;26978;44.830;-0.674;2023-05-07T03:16:21;15.70;99.90
35692;DHT22;26978;44.830;-0.674;2023-05-07T03:18:47;15.60;99.90
35692;DHT22;26978;44.830;-0.674;2023-05-07T03:21:13;15.60;99.90
35692;DHT22;26978;44.830;-0.674;2023-05-07T03:23:38;15.60;99.90
35692;DHT22;26978;44.830;-0.674;2023-05-07T03:26:04;15.60;99.90
35692;DHT22;26978;44.830;-0.674;2023-05-07T03:28:30;15.60;99.90
35692;DHT22;26978;44.830;-0.674;2023-05-07T03:30:56;15.60;99.90
35692;DHT22;26978;44.830;-0.674;2023-05-07T03:33:21;15.60;99.90
35692;DHT22;26978;44.830;-0.674;2023-05-07T03:35:47;15.50;99.90
35692;DHT22;26978;44.830;-0.674;2023-05-07T03:38:12;15.60;99.90
35692;DHT22;26978;44.830;-0.674;2023-05-07T03:40:38;15.50;99.90
35692;DHT22;26978;44.830;-0.674;2023-05-07T03:43:04;15.60;99.90
35692;DHT22;26978;44.830;-0.674;2023-05-07T03:45:29;15.50;99.90
35692;DHT22;26978;44.830;-0.674;2023-05-07T03:47:55;15.50;99.90
35692;DHT22;26978;44.830;-0.674;2023-05-07T03:50:21;15.50;99.90
35692;DHT22;26978;44.830;-0.674;2023-05-07T03:52:46;15.50;99.90
35692;DHT22;26978;44.830;-0.674;2023-05-07T03:55:12;15.50;99.90
35692;DHT22;26978;44.830;-0.674;2023-05-07T03:57:37;15.50;99.90
35692;DHT22;26978;44.830;-0.674;2023-05-07T04:00:03;15.50;99.90
35692;DHT22;26978;44.830;-0.674;2023-05-07T04:02:29;15.50;99.90
35692;DHT22;26978;44.830;-0.674;2023-05-07T04:04:55;15.50;99.90
35692;DHT22;26978;44.830;-0.674;2023-05-07T04:07:21;15.50;99.90
35692;DHT22;26978;44.830;-0.674;2023-05-07T04:09:47;15.50;99.90
35692;DHT22;26978;44.830;-0.674;2023-05-07T04:12:13;15.50;99.90
35692;DHT22;26978;44.830;-0.674;2023-05-07T04:14:38;15.50;99.90
35692;DHT22;26978;44.830;-0.674;2023-05-07T04:17:04;15.50;99.90
35692;DHT22;26978;44.830;-0.674;2023-05-07T04:19:33;15.50;99.90
35692;DHT22;26978;44.830;-0.674;2023-05-07T04:21:59;15.50;99.90
35692;DHT22;26978;44.830;-0.674;2023-05-07T04:24:24;15.40;99.90
35692;DHT22;26978;44.830;-0.674;2023-05-07T04:26:50;15.50;99.90
35692;DHT22;26978;44.830;-0.674;2023-05-07T04:29:16;15.50;99.90
35692;DHT22;26978;44.830;-0.674;2023-05-07T04:31:42;15.40;99.90
35692;DHT22;26978;44.830;-0.674;2023-05-07T04:34:10;15.40;99.90
35692;DHT22;26978;44.830;-0.674;2023-05-07T04:36:37;15.40;99.90
35692;DHT22;26978;44.830;-0.674;2023-05-07T04:39:03;15.30;99.90
35692;DHT22;26978;44.830;-0.674;2023-05-07T04:41:29;15.30;99.90
35692;DHT22;26978;44.830;-0.674;2023-05-07T04:43:55;15.20;99.90
35692;DHT22;26978;44.830;-0.674;2023-05-07T04:46:22;15.30;99.90
35692;DHT22;26978;44.830;-0.674;2023-05-07T04:48:49;15.20;99.90
35692;DHT22;26978;44.830;-0.674;2023-05-07T04:51:15;15.20;99.90
35692;DHT22;26978;44.830;-0.674;2023-05-07T04:53:40;15.30;99.90
35692;DHT22;26978;44.830;-0.674;2023-05-07T04:56:06;15.30;99.90
35692;DHT22;26978;44.830;-0.674;2023-05-07T04:58:32;15.30;99.90
35692;DHT22;26978;44.830;-0.674;2023-05-07T05:00:58;15.30;99.90
35692;DHT22;26978;44.830;-0.674;2023-05-07T05:03:24;15.30;99.90
35692;DHT22;26978;44.830;-0.674;2023-05-07T05:05:51;15.40;99.90
35692;DHT22;26978;44.830;-0.674;2023-05-07T05:08:18;15.40;99.90
35692;DHT22;26978;44.830;-0.674;2023-05-07T05:10:44;15.40;99.90
35692;DHT22;26978;44.830;-0.674;2023-05-07T05:13:10;15.40;99.90
35692;DHT22;26978;44.830;-0.674;2023-05-07T05:15:38;15.40;99.90
35692;DHT22;26978;44.830;-0.674;2023-05-07T05:18:04;15.50;99.90
35692;DHT22;26978;44.830;-0.674;2023-05-07T05:20:29;15.50;99.90
35692;DHT22;26978;44.830;-0.674;2023-05-07T05:22:55;15.50;99.90
35692;DHT22;26978;44.830;-0.674;2023-05-07T05:25:21;15.50;99.90
35692;DHT22;26978;44.830;-0.674;2023-05-07T05:27:46;15.50;99.90
35692;DHT22;26978;44.830;-0.674;2023-05-07T05:30:12;15.60;99.90
35692;DHT22;26978;44.830;-0.674;2023-05-07T05:32:38;15.60;99.90
35692;DHT22;26978;44.830;-0.674;2023-05-07T05:35:04;15.70;99.90
35692;DHT22;26978;44.830;-0.674;2023-05-07T05:37:30;15.70;99.90
35692;DHT22;26978;44.830;-0.674;2023-05-07T05:39:56;15.70;99.90
35692;DHT22;26978;44.830;-0.674;2023-05-07T05:42:22;15.80;99.90
35692;DHT22;26978;44.830;-0.674;2023-05-07T05:44:48;15.80;99.90
35692;DHT22;26978;44.830;-0.674;2023-05-07T05:47:14;15.80;99.90
35692;DHT22;26978;44.830;-0.674;2023-05-07T05:49:40;15.80;99.90
35692;DHT22;26978;44.830;-0.674;2023-05-07T05:52:05;15.80;99.90
35692;DHT22;26978;44.830;-0.674;2023-05-07T05:54:31;15.80;99.90
35692;DHT22;26978;44.830;-0.674;2023-05-07T05:56:57;15.80;99.90
35692;DHT22;26978;44.830;-0.674;2023-05-07T05:59:23;15.80;99.90
35692;DHT22;26978;44.830;-0.674;2023-05-07T06:01:48;15.70;99.90
35692;DHT22;26978;44.830;-0.674;2023-05-07T06:04:14;15.70;99.90
35692;DHT22;26978;44.830;-0.674;2023-05-07T06:06:40;15.60;99.90
35692;DHT22;26978;44.830;-0.674;2023-05-07T06:09:05;15.70;99.90
35692;DHT22;26978;44.830;-0.674;2023-05-07T06:11:31;15.70;99.90
35692;DHT22;26978;44.830;-0.674;2023-05-07T06:13:57;15.70;99.90
35692;DHT22;26978;44.830;-0.674;2023-05-07T06:16:24;15.70;99.90
35692;DHT22;26978;44.830;-0.674;2023-05-07T06:18:50;15.70;99.90
35692;DHT22;26978;44.830;-0.674;2023-05-07T06:21:16;15.70;99.90
35692;DHT22;26978;44.830;-0.674;2023-05-07T06:23:41;15.80;99.90
35692;DHT22;26978;44.830;-0.674;2023-05-07T06:26:07;15.80;99.90
35692;DHT22;26978;44.830;-0.674;2023-05-07T06:28:33;15.90;99.90
35692;DHT22;26978;44.830;-0.674;2023-05-07T06:31:15;16.00;99.90
35692;DHT22;26978;44.830;-0.674;2023-05-07T06:33:41;16.20;99.90
35692;DHT22;26978;44.830;-0.674;2023-05-07T06:36:07;16.20;99.90
35692;DHT22;26978;44.830;-0.674;2023-05-07T06:38:32;16.30;99.90
35692;DHT22;26978;44.830;-0.674;2023-05-07T06:40:58;16.40;99.90
35692;DHT22;26978;44.830;-0.674;2023-05-07T06:43:23;16.40;99.90
35692;DHT22;26978;44.830;-0.674;2023-05-07T06:45:49;16.30;99.90
35692;DHT22;26978;44.830;-0.674;2023-05-07T06:48:15;16.40;99.90
35692;DHT22;26978;44.830;-0.674;2023-05-07T06:50:41;16.50;99.90
35692;DHT22;26978;44.830;-0.674;2023-05-07T06:53:07;16.50;99.90
35692;DHT22;26978;44.830;-0.674;2023-05-07T06:55:33;16.50;99.90
35692;DHT22;26978;44.830;-0.674;2023-05-07T06:57:58;16.50;99.90
35692;DHT22;26978;44.830;-0.674;2023-05-07T07:00:27;16.50;99.90
35692;DHT22;26978;44.830;-0.674;2023-05-07T07:02:53;16.40;99.90
35692;DHT22;26978;44.830;-0.674;2023-05-07T07:05:19;16.40;99.90
35692;DHT22;26978;44.830;-0.674;2023-05-07T07:07:45;16.40;99.90
35692;DHT22;26978;44.830;-0.674;2023-05-07T07:10:20;16.40;99.90
35692;DHT22;26978;44.830;-0.674;2023-05-07T07:12:46;16.40;99.90
35692;DHT22;26978;44.830;-0.674;2023-05-07T07:15:12;16.40;99.90
35692;DHT22;26978;44.830;-0.674;2023-05-07T07:17:38;16.40;99.90
35692;DHT22;26978;44.830;-0.674;2023-05-07T07:20:04;16.50;99.90
35692;DHT22;26978;44.830;-0.674;2023-05-07T07:22:30;16.60;99.90
35692;DHT22;26978;44.830;-0.674;2023-05-07T07:24:56;16.70;99.90
35692;DHT22;26978;44.830;-0.674;2023-05-07T07:27:21;16.60;99.90
35692;DHT22;26978;44.830;-0.674;2023-05-07T07:29:47;16.60;99.90
35692;DHT22;26978;44.830;-0.674;2023-05-07T07:32:13;16.80;99.90
35692;DHT22;26978;44.830;-0.674;2023-05-07T07:34:38;16.70;99.90
35692;DHT22;26978;44.830;-0.674;2023-05-07T07:37:04;16.60;99.90
35692;DHT22;26978;44.830;-0.674;2023-05-07T07:39:32;16.50;99.90
35692;DHT22;26978;44.830;-0.674;2023-05-07T07:41:58;16.50;99.90
35692;DHT22;26978;44.830;-0.674;2023-05-07T07:44:24;16.80;99.90
35692;DHT22;26978;44.830;-0.674;2023-05-07T07:46:50;17.00;99.90
35692;DHT22;26978;44.830;-0.674;2023-05-07T07:49:16;17.00;99.90
35692;DHT22;26978;44.830;-0.674;2023-05-07T07:51:42;17.20;99.90
35692;DHT22;26978;44.830;-0.674;2023-05-07T07:54:08;17.20;99.90
35692;DHT22;26978;44.830;-0.674;2023-05-07T07:56:33;17.30;99.90
35692;DHT22;26978;44.830;-0.674;2023-05-07T07:58:59;17.30;99.90
35692;DHT22;26978;44.830;-0.674;2023-05-07T08:01:25;17.50;99.90
35692;DHT22;26978;44.830;-0.674;2023-05-07T08:03:51;17.80;99.90
35692;DHT22;26978;44.830;-0.674;2023-05-07T08:06:17;17.70;99.90
35692;DHT22;26978;44.830;-0.674;2023-05-07T08:08:43;17.80;99.90
35692;DHT22;26978;44.830;-0.674;2023-05-07T08:11:09;17.70;99.90
35692;DHT22;26978;44.830;-0.674;2023-05-07T08:13:36;17.60;99.90
35692;DHT22;26978;44.830;-0.674;2023-05-07T08:16:01;17.60;99.90
35692;DHT22;26978;44.830;-0.674;2023-05-07T08:18:27;17.70;99.90
35692;DHT22;26978;44.830;-0.674;2023-05-07T08:20:54;18.10;99.90
35692;DHT22;26978;44.830;-0.674;2023-05-07T08:23:20;18.20;99.90
35692;DHT22;26978;44.830;-0.674;2023-05-07T08:25:46;18.20;99.90
35692;DHT22;26978;44.830;-0.674;2023-05-07T08:28:12;17.90;99.90
35692;DHT22;26978;44.830;-0.674;2023-05-07T08:30:37;17.80;99.90
35692;DHT22;26978;44.830;-0.674;2023-05-07T08:33:03;17.50;99.90
35692;DHT22;26978;44.830;-0.674;2023-05-07T08:35:29;17.70;99.90
35692;DHT22;26978;44.830;-0.674;2023-05-07T08:37:55;18.00;99.90
35692;DHT22;26978;44.830;-0.674;2023-05-07T08:40:24;18.20;99.90
35692;DHT22;26978;44.830;-0.674;2023-05-07T08:42:54;18.00;99.90
35692;DHT22;26978;44.830;-0.674;2023-05-07T08:45:23;18.00;99.90
35692;DHT22;26978;44.830;-0.674;2023-05-07T08:47:52;18.10;99.90
35692;DHT22;26978;44.830;-0.674;2023-05-07T08:50:20;18.40;99.90
35692;DHT22;26978;44.830;-0.674;2023-05-07T08:52:46;18.50;99.90
35692;DHT22;26978;44.830;-0.674;2023-05-07T08:55:12;19.00;99.90
35692;DHT22;26978;44.830;-0.674;2023-05-07T08:57:38;19.00;99.90
35692;DHT22;26978;44.830;-0.674;2023-05-07T09:00:04;19.40;99.90
35692;DHT22;26978;44.830;-0.674;2023-05-07T09:02:32;19.50;99.90
35692;DHT22;26978;44.830;-0.674;2023-05-07T09:04:58;19.30;99.90
35692;DHT22;26978;44.830;-0.674;2023-05-07T09:07:24;19.10;99.90
35692;DHT22;26978;44.830;-0.674;2023-05-07T09:09:50;19.40;99.90
35692;DHT22;26978;44.830;-0.674;2023-05-07T09:12:18;19.20;99.90
35692;DHT22;26978;44.830;-0.674;2023-05-07T09:14:45;19.30;99.90
35692;DHT22;26978;44.830;-0.674;2023-05-07T09:17:11;19.30;99.90
35692;DHT22;26978;44.830;-0.674;2023-05-07T09:19:36;19.40;99.90
35692;DHT22;26978;44.830;-0.674;2023-05-07T09:22:03;19.70;99.90
35692;DHT22;26978;44.830;-0.674;2023-05-07T09:24:29;19.50;99.90
35692;DHT22;26978;44.830;-0.674;2023-05-07T09:26:59;19.40;99.90
35692;DHT22;26978;44.830;-0.674;2023-05-07T09:29:27;19.40;99.90
35692;DHT22;26978;44.830;-0.674;2023-05-07T09:31:54;19.40;99.90
35692;DHT22;26978;44.830;-0.674;2023-05-07T09:34:20;19.40;99.90
35692;DHT22;26978;44.830;-0.674;2023-05-07T09:36:46;19.30;99.90
35692;DHT22;26978;44.830;-0.674;2023-05-07T09:39:12;19.40;99.90
35692;DHT22;26978;44.830;-0.674;2023-05-07T09:41:48;19.50;99.90
35692;DHT22;26978;44.830;-0.674;2023-05-07T09:44:14;19.80;99.90
35692;DHT22;26978;44.830;-0.674;2023-05-07T09:46:43;19.80;99.90
35692;DHT22;26978;44.830;-0.674;2023-05-07T09:49:20;19.70;99.90
35692;DHT22;26978;44.830;-0.674;2023-05-07T09:51:49;19.50;99.90
35692;DHT22;26978;44.830;-0.674;2023-05-07T09:54:16;19.60;99.90
35692;DHT22;26978;44.830;-0.674;2023-05-07T09:56:43;19.90;99.90
35692;DHT22;26978;44.830;-0.674;2023-05-07T09:59:14;20.20;99.90
35692;DHT22;26978;44.830;-0.674;2023-05-07T10:01:42;20.30;99.90
35692;DHT22;26978;44.830;-0.674;2023-05-07T10:04:09;20.50;99.90
35692;DHT22;26978;44.830;-0.674;2023-05-07T10:06:35;20.30;99.90
35692;DHT22;26978;44.830;-0.674;2023-05-07T10:09:03;20.30;99.90
35692;DHT22;26978;44.830;-0.674;2023-05-07T10:11:32;20.50;99.90
35692;DHT22;26978;44.830;-0.674;2023-05-07T10:13:59;20.60;99.90
35692;DHT22;26978;44.830;-0.674;2023-05-07T10:16:29;20.70;99.90
35692;DHT22;26978;44.830;-0.674;2023-05-07T10:18:58;20.70;99.90
35692;DHT22;26978;44.830;-0.674;2023-05-07T10:21:24;20.70;99.90
35692;DHT22;26978;44.830;-0.674;2023-05-07T10:23:57;20.60;99.90
35692;DHT22;26978;44.830;-0.674;2023-05-07T10:26:24;20.70;99.90
35692;DHT22;26978;44.830;-0.674;2023-05-07T10:28:56;20.90;99.90
35692;DHT22;26978;44.830;-0.674;2023-05-07T10:33:51;20.70;99.90
35692;DHT22;26978;44.830;-0.674;2023-05-07T10:36:18;20.30;99.90
35692;DHT22;26978;44.830;-0.674;2023-05-07T10:38:44;20.80;99.90
35692;DHT22;26978;44.830;-0.674;2023-05-07T10:41:10;21.30;99.90
35692;DHT22;26978;44.830;-0.674;2023-05-07T10:43:43;21.30;99.90
35692;DHT22;26978;44.830;-0.674;2023-05-07T10:46:17;21.50;99.90
35692;DHT22;26978;44.830;-0.674;2023-05-07T10:51:28;21.10;99.90
35692;DHT22;26978;44.830;-0.674;2023-05-07T10:56:37;21.50;99.90
35692;DHT22;26978;44.830;-0.674;2023-05-07T11:02:00;20.90;99.90
35692;DHT22;26978;44.830;-0.674;2023-05-07T11:04:28;21.00;99.90
35692;DHT22;26978;44.830;-0.674;2023-05-07T11:10:05;20.50;99.90
35692;DHT22;26978;44.830;-0.674;2023-05-07T11:15:15;20.20;99.90
35692;DHT22;26978;44.830;-0.674;2023-05-07T11:17:59;20.10;99.90
35692;DHT22;26978;44.830;-0.674;2023-05-07T11:26:06;20.20;99.90
35692;DHT22;26978;44.830;-0.674;2023-05-07T11:28:41;20.20;99.90
35692;DHT22;26978;44.830;-0.674;2023-05-07T11:31:08;20.40;99.90
35692;DHT22;26978;44.830;-0.674;2023-05-07T11:33:34;20.20;99.90
35692;DHT22;26978;44.830;-0.674;2023-05-07T11:36:02;20.20;99.90
35692;DHT22;26978;44.830;-0.674;2023-05-07T11:38:35;20.40;99.90
35692;DHT22;26978;44.830;-0.674;2023-05-07T11:41:01;20.90;99.90
35692;DHT22;26978;44.830;-0.674;2023-05-07T11:43:27;21.40;99.90
35692;DHT22;26978;44.830;-0.674;2023-05-07T11:45:53;21.80;99.90
35692;DHT22;26978;44.830;-0.674;2023-05-07T11:48:21;21.70;99.90
35692;DHT22;26978;44.830;-0.674;2023-05-07T11:51:03;21.90;99.90
35692;DHT22;26978;44.830;-0.674;2023-05-07T11:53:41;21.90;99.90
35692;DHT22;26978;44.830;-0.674;2023-05-07T11:56:08;21.90;99.90
35692;DHT22;26978;44.830;-0.674;2023-05-07T11:58:34;21.50;99.90
35692;DHT22;26978;44.830;-0.674;2023-05-07T12:01:00;21.20;99.90
35692;DHT22;26978;44.830;-0.674;2023-05-07T12:03:25;21.00;99.90
35692;DHT22;26978;44.830;-0.674;2023-05-07T12:05:51;20.70;99.90
35692;DHT22;26978;44.830;-0.674;2023-05-07T12:08:20;20.90;99.90
35692;DHT22;26978;44.830;-0.674;2023-05-07T12:10:48;20.70;99.90
35692;DHT22;26978;44.830;-0.674;2023-05-07T12:15:42;21.40;99.90
35692;DHT22;26978;44.830;-0.674;2023-05-07T12:18:08;21.40;99.90
35692;DHT22;26978;44.830;-0.674;2023-05-07T12:20:35;21.60;99.90
35692;DHT22;26978;44.830;-0.674;2023-05-07T12:23:01;21.90;99.90
35692;DHT22;26978;44.830;-0.674;2023-05-07T12:25:30;21.90;99.90
35692;DHT22;26978;44.830;-0.674;2023-05-07T12:27:56;21.80;99.90
35692;DHT22;26978;44.830;-0.674;2023-05-07T12:30:24;21.20;99.90
35692;DHT22;26978;44.830;-0.674;2023-05-07T12:32:53;21.40;99.90
35692;DHT22;26978;44.830;-0.674;2023-05-07T12:35:26;21.70;99.90
35692;DHT22;26978;44.830;-0.674;2023-05-07T12:37:56;22.20;99.90
35692;DHT22;26978;44.830;-0.674;2023-05-07T12:40:22;22.00;99.90
35692;DHT22;26978;44.830;-0.674;2023-05-07T12:42:53;21.60;99.90
35692;DHT22;26978;44.830;-0.674;2023-05-07T12:45:20;21.60;99.90
35692;DHT22;26978;44.830;-0.674;2023-05-07T12:47:46;21.40;99.90
35692;DHT22;26978;44.830;-0.674;2023-05-07T12:50:16;21.30;99.90
35692;DHT22;26978;44.830;-0.674;2023-05-07T12:52:43;21.30;99.90
35692;DHT22;26978;44.830;-0.674;2023-05-07T12:55:13;21.20;99.90
35692;DHT22;26978;44.830;-0.674;2023-05-07T12:57:49;21.60;99.90
35692;DHT22;26978;44.830;-0.674;2023-05-07T13:00:35;21.40;99.90
35692;DHT22;26978;44.830;-0.674;2023-05-07T13:03:01;21.90;99.90
35692;DHT22;26978;44.830;-0.674;2023-05-07T13:05:27;22.00;99.90
35692;DHT22;26978;44.830;-0.674;2023-05-07T13:07:53;22.00;99.90
35692;DHT22;26978;44.830;-0.674;2023-05-07T13:10:22;22.00;99.90
35692;DHT22;26978;44.830;-0.674;2023-05-07T13:12:48;22.90;99.90
35692;DHT22;26978;44.830;-0.674;2023-05-07T13:15:14;22.80;99.90
35692;DHT22;26978;44.830;-0.674;2023-05-07T13:17:40;22.40;99.90
35692;DHT22;26978;44.830;-0.674;2023-05-07T13:20:06;22.20;99.90
35692;DHT22;26978;44.830;-0.674;2023-05-07T13:22:33;22.00;99.90
35692;DHT22;26978;44.830;-0.674;2023-05-07T13:24:59;22.00;99.90
35692;DHT22;26978;44.830;-0.674;2023-05-07T13:27:24;22.30;99.90
35692;DHT22;26978;44.830;-0.674;2023-05-07T13:29:51;22.20;99.90
35692;DHT22;26978;44.830;-0.674;2023-05-07T13:32:17;22.70;99.90
35692;DHT22;26978;44.830;-0.674;2023-05-07T13:34:42;22.30;99.90
35692;DHT22;26978;44.830;-0.674;2023-05-07T13:37:08;23.00;99.90
35692;DHT22;26978;44.830;-0.674;2023-05-07T13:39:34;23.20;99.40
35692;DHT22;26978;44.830;-0.674;2023-05-07T13:41:59;22.80;99.90
35692;DHT22;26978;44.830;-0.674;2023-05-07T13:44:26;22.10;99.90
35692;DHT22;26978;44.830;-0.674;2023-05-07T13:46:52;22.10;99.90
35692;DHT22;26978;44.830;-0.674;2023-05-07T13:49:17;23.70;99.90
35692;DHT22;26978;44.830;-0.674;2023-05-07T13:51:43;24.60;97.50
35692;DHT22;26978;44.830;-0.674;2023-05-07T13:54:09;23.40;97.40
35692;DHT22;26978;44.830;-0.674;2023-05-07T13:56:34;23.10;99.90
35692;DHT22;26978;44.830;-0.674;2023-05-07T13:59:00;23.00;99.90
35692;DHT22;26978;44.830;-0.674;2023-05-07T14:01:27;22.80;99.90
35692;DHT22;26978;44.830;-0.674;2023-05-07T14:03:52;22.80;99.90
35692;DHT22;26978;44.830;-0.674;2023-05-07T14:06:18;24.10;99.60
35692;DHT22;26978;44.830;-0.674;2023-05-07T14:08:43;24.40;96.90
35692;DHT22;26978;44.830;-0.674;2023-05-07T14:11:09;24.20;95.80
35692;DHT22;26978;44.830;-0.674;2023-05-07T14:13:35;22.80;99.00
35692;DHT22;26978;44.830;-0.674;2023-05-07T14:16:00;22.40;99.90
35692;DHT22;26978;44.830;-0.674;2023-05-07T14:18:26;22.80;99.90
35692;DHT22;26978;44.830;-0.674;2023-05-07T14:20:54;22.00;99.90
35692;DHT22;26978;44.830;-0.674;2023-05-07T14:23:19;21.60;99.90
35692;DHT22;26978;44.830;-0.674;2023-05-07T14:25:47;22.20;99.90
35692;DHT22;26978;44.830;-0.674;2023-05-07T14:28:13;21.90;99.90
35692;DHT22;26978;44.830;-0.674;2023-05-07T14:30:39;21.80;99.90
35692;DHT22;26978;44.830;-0.674;2023-05-07T14:33:04;22.00;99.90
35692;DHT22;26978;44.830;-0.674;2023-05-07T14:35:30;22.20;99.90
35692;DHT22;26978;44.830;-0.674;2023-05-07T14:37:55;23.00;99.90
35692;DHT22;26978;44.830;-0.674;2023-05-07T14:40:21;22.00;99.90
35692;DHT22;26978;44.830;-0.674;2023-05-07T14:42:47;22.50;99.90
35692;DHT22;26978;44.830;-0.674;2023-05-07T14:45:12;22.80;99.90
35692;DHT22;26978;44.830;-0.674;2023-05-07T14:47:38;22.60;99.90
35692;DHT22;26978;44.830;-0.674;2023-05-07T14:50:04;21.70;99.90
35692;DHT22;26978;44.830;-0.674;2023-05-07T14:52:30;21.20;99.90
35692;DHT22;26978;44.830;-0.674;2023-05-07T14:54:55;21.10;99.90
35692;DHT22;26978;44.830;-0.674;2023-05-07T14:57:21;20.60;99.90
35692;DHT22;26978;44.830;-0.674;2023-05-07T14:59:47;21.80;99.90
35692;DHT22;26978;44.830;-0.674;2023-05-07T15:02:13;22.60;99.90
35692;DHT22;26978;44.830;-0.674;2023-05-07T15:04:39;23.70;96.70
35692;DHT22;26978;44.830;-0.674;2023-05-07T15:07:14;25.10;92.20
35692;DHT22;26978;44.830;-0.674;2023-05-07T15:09:41;24.80;92.00
35692;DHT22;26978;44.830;-0.674;2023-05-07T15:12:07;25.00;93.50
35692;DHT22;26978;44.830;-0.674;2023-05-07T15:14:33;24.20;92.60
35692;DHT22;26978;44.830;-0.674;2023-05-07T15:16:58;23.70;96.60
35692;DHT22;26978;44.830;-0.674;2023-05-07T15:19:24;23.80;94.00
35692;DHT22;26978;44.830;-0.674;2023-05-07T15:21:54;23.90;93.10
35692;DHT22;26978;44.830;-0.674;2023-05-07T15:24:21;24.30;93.30
35692;DHT22;26978;44.830;-0.674;2023-05-07T15:26:46;24.50;92.90
35692;DHT22;26978;44.830;-0.674;2023-05-07T15:29:12;24.40;91.80
35692;DHT22;26978;44.830;-0.674;2023-05-07T15:31:37;24.60;92.60
35692;DHT22;26978;44.830;-0.674;2023-05-07T15:34:04;25.30;91.20
35692;DHT22;26978;44.830;-0.674;2023-05-07T15:36:29;25.70;91.20
35692;DHT22;26978;44.830;-0.674;2023-05-07T15:38:56;25.50;90.50